Monday, July 28, 2014, 8:19 AM EDT

KTHV, York Airport

Location: Spring Grove, PA, United States Lat: 39.917
Local Time: 8:19 AM EDT (12:19 GMT) Lon: -76.883
Time Zone: US/Eastern Elev: 478 ft

Show me the last for .
Show Decoded

2014-07-28 07:53 METAR KTHV 281153Z AUTO VRB06KT 10SM CLR 22/19 A2960 RMK AO2 SLP021 60001 70052
                 T02170189 10217 20172 53010 =
2014-07-28 06:53 METAR KTHV 281053Z AUTO 29005KT 10SM CLR 19/18 A2959 RMK AO2 SLP017 T01940183 =
2014-07-28 05:53 METAR KTHV 280953Z AUTO 00000KT 10SM FEW003 19/18 A2957 RMK AO2 RAB36E48 SLP011
                 P0001 T01890183 =
2014-07-28 04:53 METAR KTHV 280853Z AUTO 36003KT 2 1/2SM BR FEW003 18/17 A2957 RMK AO2 SLP010
                 60000 T01780172 58008 =
2014-07-28 04:50 METAR KTHV 280850Z AUTO 00000KT 1 1/4SM BR SCT003 17/17 A2957 RMK AO2 =
2014-07-28 04:43 METAR KTHV 280843Z AUTO 00000KT 3/4SM BR VV003 18/17 A2957 RMK AO2 T01780172 =
2014-07-28 04:38 METAR KTHV 280838Z AUTO 00000KT 1 1/2SM BR BKN003 18/18 A2957 RMK AO2 VIS 1/4V4
                 T01780178 =
2014-07-28 04:03 METAR KTHV 280803Z AUTO 00000KT 3SM BR OVC002 18/18 A2958 RMK AO2 T01830183 =
2014-07-28 03:53 METAR KTHV 280753Z AUTO 00000KT 2SM BR OVC002 19/18 A2958 RMK AO2 RAB14E23
                 SLP015 P0000 T01890183 =
2014-07-28 03:51 METAR KTHV 280751Z AUTO 25003KT 2SM BR OVC002 18/18 A2958 RMK AO2 RAB14E23 P0000
                 =
2014-07-28 03:41 METAR KTHV 280741Z AUTO 00000KT 2 1/2SM BR OVC002 19/18 A2958 RMK AO2 RAB14E23
                 P0000 T01890183 =
2014-07-28 02:53 METAR KTHV 280653Z AUTO 29004KT 4SM BR OVC002 18/18 A2959 RMK AO2 SLP018
                 T01830183 =
2014-07-28 02:50 METAR KTHV 280650Z AUTO 29004KT 3SM BR OVC002 18/18 A2959 RMK AO2 =
2014-07-28 02:41 METAR KTHV 280641Z AUTO 29003KT 2 1/2SM BR OVC002 18/18 A2960 RMK AO2 T01830183
                 =
2014-07-28 02:29 METAR KTHV 280629Z AUTO 29003KT 1 3/4SM BR BKN003 OVC006 18/18 A2959 RMK AO2
                 T01830183 =
2014-07-28 02:23 METAR KTHV 280623Z AUTO 28005KT 2 1/2SM BR OVC003 18/18 A2959 RMK AO2 CIG
                 002V007 T01830178 =
2014-07-28 02:01 METAR KTHV 280601Z AUTO 22003KT 3SM BR BKN005 18/18 A2959 RMK AO2 T01830178 =
2014-07-28 01:53 METAR KTHV 280553Z AUTO 00000KT 3SM BR FEW006 18/18 A2959 RMK AO2 SLP018 60051
                 T01830178 10228 20183 58033 =
2014-07-28 01:08 METAR KTHV 280508Z AUTO 00000KT 8SM FEW005 SCT065 BKN120 19/18 A2963 RMK AO2
                 T01890183 =
2014-07-28 00:53 METAR KTHV 280453Z AUTO 00000KT 8SM SCT100 BKN120 19/18 A2963 RMK AO2 RAE16
                 TSE02 SLP032 P0001 T01890183 403170183 =
2014-07-28 00:30 METAR KTHV 280430Z AUTO 00000KT 10SM FEW065 SCT090 BKN110 19/18 A2964 RMK AO2
                 LTG DSNT SE RAE16 TSE02 P0001 T01890178 =
2014-07-28 00:15 METAR KTHV 280415Z AUTO VRB03KT 10SM VCTS -RA FEW046 BKN090 BKN110 19/18 A2965
                 RMK AO2 LTG DSNT E-S TSE02 P0001 T01890178 =
2014-07-27 23:53 METAR KTHV 280353Z AUTO 20006G17KT 3SM +TSRA BR FEW033 BKN042 OVC110 19/18 A2967
                 RMK AO2 LTG DSNT SE AND S RAB0259 TSB47 SLP046 P0008 T01890178 =
2014-07-27 23:43 METAR KTHV 280343Z AUTO 20011G16KT 8SM -RA SCT033 BKN045 OVC110 19/18 A2970 RMK
                 AO2 LTG DSNT SE-SW RAB0259 PRESRR P0002 T01890178 =
2014-07-27 22:53 METAR KTHV 280253Z AUTO 16003KT 10SM VCTS FEW037 SCT047 BKN055 19/18 A2969 RMK
                 AO2 LTG DSNT SE-W SLP051 60042 T01890178 50005 =
2014-07-27 21:53 METAR KTHV 280153Z AUTO 08005KT 10SM BKN050 OVC085 19/18 A2971 RMK AO2 LTG DSNT
                 NE-SE RAE38 TSB06E42 SLP061 P0040 T01890178 =
2014-07-27 21:45 METAR KTHV 280145Z AUTO 02007KT 10SM VCTS FEW009 BKN050 OVC060 19/17 A2973 RMK
                 AO2 LTG DSNT NE-SE RAE38 TSB06E42 P0040 T01890172 =
2014-07-27 21:28 METAR KTHV 280128Z AUTO 24003KT 3SM -TSRA BR SCT012 BKN035 OVC048 18/18 A2974
                 RMK AO2 LTG DSNT NE AND E TSB06 P0040 T01830178 =
2014-07-27 21:26 METAR KTHV 280126Z AUTO VRB04KT 1 1/2SM -TSRA BR SCT012 BKN035 OVC048 18/17
                 A2974 RMK AO2 LTG DSNT NE AND E TSB06 P0040 T01830172 =
2014-07-27 21:19 METAR KTHV 280119Z AUTO 04010G19KT 3/4SM +TSRA BR SCT012 OVC035 18/17 A2971 RMK
                 AO2 LTG DSNT N-E TSB06 P0039 T01830172 =
2014-07-27 21:16 METAR KTHV 280116Z AUTO 03011G19KT 350V060 1 1/4SM +TSRA BR FEW014 OVC035 19/17
                 A2971 RMK AO2 LTG DSNT N-E TSB06 P0029 T01890172 =
2014-07-27 21:12 METAR KTHV 280112Z AUTO 29014G18KT 7SM -TSRA FEW012 OVC035 19/17 A2977 RMK AO2
                 LTG DSNT NW-E TSB06 PRESRR P0004 T01940172 =
2014-07-27 20:53 METAR KTHV 280053Z AUTO VRB05G15KT 9SM VCTS -RA FEW022 OVC033 20/17 A2970 RMK
                 AO2 WSHFT 0026 LTG DSNT ALQDS RAB30 TSB18E33 SLP055 P0002 T02000172 =
2014-07-27 20:46 METAR KTHV 280046Z AUTO 34011G15KT 6SM VCTS RA FEW022 BKN033 OVC050 20/17 A2970
                 RMK AO2 WSHFT 0026 LTG DSNT ALQDS RAB30 TSB18E33 P0002 T02000172 =
2014-07-27 20:39 METAR KTHV 280039Z AUTO 35011G19KT 9SM VCTS -RA FEW022 BKN033 OVC050 21/17 A2970
                 RMK AO2 LTG DSNT ALQDS RAB30 TSB18E33 P0000 T02110172 =
2014-07-27 20:24 METAR KTHV 280024Z AUTO 30005KT 10SM TS OVC033 22/18 A2971 RMK AO2 LTG DSNT
                 ALQDS TSB18 T02220178 =
2014-07-27 19:53 METAR KTHV 272353Z AUTO 00000KT 10SM VCTS SCT035 BKN045 BKN065 22/17 A2967 RMK
                 AO2 LTG DSNT ALQDS SLP046 T02220172 10317 20222 56007 =
2014-07-27 19:21 METAR KTHV 272321Z AUTO 34006KT 10SM VCTS BKN034 OVC047 23/17 A2968 RMK AO2 LTG
                 DSNT ALQDS T02280167 =
2014-07-27 18:53 METAR KTHV 272253Z AUTO 31006KT 10SM FEW035 FEW100 28/21 A2970 RMK AO2 LTG DSNT
                 NW-NE PRESRR SLP054 T02780211 =
2014-07-27 17:53 METAR KTHV 272153Z AUTO 20006G15KT 10SM CLR 29/21 A2967 RMK AO2 LTG DSNT NW
                 SLP043 T02890211 =
2014-07-27 15:53 METAR KTHV 271953Z AUTO 25006KT 10SM FEW047 FEW055 31/21 A2972 RMK AO2 SLP063
                 T03060206 =
2014-07-27 14:53 METAR KTHV 271853Z AUTO 25006KT 10SM SCT048 31/21 A2974 RMK AO2 SLP068 T03060206
                 =
2014-07-27 13:53 METAR KTHV 271753Z AUTO 25007KT 10SM FEW046 30/19 A2976 RMK AO2 SLP073 T03000194
                 10306 20222 56013 =
2014-07-27 12:53 METAR KTHV 271653Z AUTO 23004KT 10SM SCT039 BKN050 29/21 A2977 RMK AO2 SLP077
                 T02890206 =
2014-07-27 11:53 METAR KTHV 271553Z AUTO 26006KT 10SM FEW032 28/21 A2978 RMK AO2 SLP081 T02830206
                 =
2014-07-27 10:53 METAR KTHV 271453Z AUTO 24007KT 10SM CLR 27/20 A2979 RMK AO2 SLP087 T02670200
                 58012 =
2014-07-27 09:53 METAR KTHV 271353Z AUTO 24007G15KT 10SM CLR 26/19 A2981 RMK AO2 SLP093 T02560194
                 =
2014-07-27 08:53 METAR KTHV 271253Z AUTO VRB03KT 10SM SCT048 BKN065 OVC080 23/19 A2982 RMK AO2
                 SLP098 T02280189 =

Support USWX by starting your Amazon purchase here.